createdAt,value
2023-04-02T00:01:27.012Z,82.91
2023-04-02T00:16:30.068Z,82.42
2023-04-02T00:31:35.200Z,82.12
2023-04-02T00:46:49.923Z,82.07
2023-04-02T01:02:01.709Z,81.76
2023-04-02T01:17:19.140Z,81.69
2023-04-02T01:32:26.075Z,81.68
2023-04-02T01:47:29.915Z,81.21
2023-04-02T02:02:33.424Z,81.35
2023-04-02T02:17:37.190Z,81.38
2023-04-02T02:32:48.419Z,81.38
2023-04-02T02:47:55.016Z,81.13
2023-04-02T03:02:59.297Z,81.41
2023-04-02T03:18:18.501Z,81.27
2023-04-02T03:33:28.187Z,81.47
2023-04-02T03:48:39.787Z,81.20
2023-04-02T04:03:51.161Z,81.48
2023-04-02T04:19:03.826Z,81.56
2023-04-02T04:34:17.935Z,81.74
2023-04-02T04:49:31.329Z,81.69
2023-04-02T05:04:40.777Z,81.76
2023-04-02T05:20:03.080Z,81.48
2023-04-02T05:35:07.588Z,81.00
2023-04-02T05:50:37.636Z,81.02
2023-04-02T06:05:46.286Z,80.61
2023-04-02T06:20:50.171Z,81.05
2023-04-02T06:35:56.567Z,81.55
2023-04-02T06:51:13.111Z,80.65
2023-04-02T07:06:19.380Z,81.01
2023-04-02T07:21:24.661Z,81.55
2023-04-02T07:36:29.580Z,81.16
2023-04-02T07:51:33.086Z,81.71
2023-04-02T08:06:36.329Z,81.48
2023-04-02T08:21:39.441Z,81.91
2023-04-02T08:36:45.767Z,81.87
2023-04-02T08:51:49.551Z,81.91
2023-04-02T09:06:57.119Z,81.65
2023-04-02T09:22:21.002Z,81.73
2023-04-02T09:37:25.872Z,81.63
2023-04-02T09:52:30.247Z,81.23
2023-04-02T10:07:37.967Z,81.10
2023-04-02T10:22:41.817Z,80.92
2023-04-02T10:38:00.316Z,80.75
2023-04-02T10:53:06.648Z,80.63
2023-04-02T11:08:24.107Z,80.30
2023-04-02T11:23:30.721Z,79.13
2023-04-02T11:38:46.799Z,77.59
2023-04-02T11:53:52.171Z,76.82
2023-04-02T12:09:09.307Z,75.78
2023-04-02T12:24:19.993Z,72.91
2023-04-02T12:39:25.989Z,71.74
2023-04-02T12:54:34.995Z,69.78
2023-04-02T13:09:59.413Z,69.27
2023-04-02T13:25:02.521Z,67.73
2023-04-02T13:40:08.601Z,66.11
2023-04-02T13:55:14.100Z,65.50
2023-04-02T14:10:23.006Z,64.27
2023-04-02T14:25:39.218Z,63.64
2023-04-02T14:41:03.510Z,62.43
2023-04-02T14:56:08.691Z,62.87
2023-04-02T15:11:17.277Z,61.36
2023-04-02T15:26:27.365Z,60.84
2023-04-02T15:41:41.163Z,61.07
2023-04-02T15:57:02.589Z,59.98
2023-04-02T16:12:16.221Z,58.24
2023-04-02T16:27:40.309Z,57.18
2023-04-02T16:42:48.028Z,57.00
2023-04-02T16:57:54.040Z,57.54
2023-04-02T17:13:09.635Z,57.49
2023-04-02T17:28:19.250Z,55.88
2023-04-02T17:43:48.306Z,55.44
2023-04-02T17:59:10.771Z,55.34
2023-04-02T18:14:35.792Z,55.31
2023-04-02T18:30:03.353Z,55.44
2023-04-02T18:45:29.637Z,55.20
2023-04-02T19:00:37.598Z,55.77
2023-04-02T19:16:06.261Z,56.30
2023-04-02T19:31:14.627Z,57.34
2023-04-02T19:46:18.753Z,57.06
2023-04-02T20:01:22.798Z,57.67
2023-04-02T20:16:26.513Z,58.80
2023-04-02T20:31:29.918Z,58.94
2023-04-02T20:46:33.334Z,59.59
2023-04-02T21:01:40.414Z,59.99
2023-04-02T21:23:33.868Z,60.43
2023-04-02T21:38:38.671Z,60.94
2023-04-02T21:53:43.174Z,61.38
2023-04-02T22:08:47.639Z,61.75
2023-04-02T22:23:50.664Z,61.32
2023-04-02T22:38:54.090Z,62.50
2023-04-02T22:53:57.465Z,62.50
2023-04-02T23:09:00.717Z,63.06
2023-04-02T23:24:04.097Z,63.46
2023-04-02T23:39:10.650Z,63.43
2023-04-02T23:54:14.635Z,63.83
